sensor_id;sensor_type;location;lat;lon;timestamp;temperature;humidity
7048;DHT22;3565;53.254;10.352;2023-07-20T00:01:36;13.30;1.00
7048;DHT22;3565;53.254;10.352;2023-07-20T00:04:06;13.30;1.00
7048;DHT22;3565;53.254;10.352;2023-07-20T00:06:35;13.30;1.00
7048;DHT22;3565;53.254;10.352;2023-07-20T00:09:05;13.30;1.00
7048;DHT22;3565;53.254;10.352;2023-07-20T00:11:36;13.20;1.00
7048;DHT22;3565;53.254;10.352;2023-07-20T00:14:06;13.20;1.00
7048;DHT22;3565;53.254;10.352;2023-07-20T00:16:35;13.20;1.00
7048;DHT22;3565;53.254;10.352;2023-07-20T00:19:04;13.20;1.00
7048;DHT22;3565;53.254;10.352;2023-07-20T00:21:34;13.10;1.00
7048;DHT22;3565;53.254;10.352;2023-07-20T00:24:04;13.20;1.00
7048;DHT22;3565;53.254;10.352;2023-07-20T00:26:32;13.20;1.00
7048;DHT22;3565;53.254;10.352;2023-07-20T00:29:02;13.20;1.00
7048;DHT22;3565;53.254;10.352;2023-07-20T00:31:31;13.20;1.00
7048;DHT22;3565;53.254;10.352;2023-07-20T00:34:02;13.20;1.00
7048;DHT22;3565;53.254;10.352;2023-07-20T00:36:31;13.20;1.00
7048;DHT22;3565;53.254;10.352;2023-07-20T00:41:37;13.10;1.00
7048;DHT22;3565;53.254;10.352;2023-07-20T00:44:06;13.10;1.00
7048;DHT22;3565;53.254;10.352;2023-07-20T00:49:14;13.00;1.00
7048;DHT22;3565;53.254;10.352;2023-07-20T00:54:22;13.00;1.00
7048;DHT22;3565;53.254;10.352;2023-07-20T00:59:28;13.00;1.00
7048;DHT22;3565;53.254;10.352;2023-07-20T01:04:36;12.90;1.00
7048;DHT22;3565;53.254;10.352;2023-07-20T01:07:10;12.90;1.00
7048;DHT22;3565;53.254;10.352;2023-07-20T01:12:22;12.90;1.00
7048;DHT22;3565;53.254;10.352;2023-07-20T01:17:29;12.90;1.00
7048;DHT22;3565;53.254;10.352;2023-07-20T01:22:47;13.00;1.00
7048;DHT22;3565;53.254;10.352;2023-07-20T01:28:23;12.90;1.00
7048;DHT22;3565;53.254;10.352;2023-07-20T01:33:39;13.00;1.00
7048;DHT22;3565;53.254;10.352;2023-07-20T01:38:47;13.10;1.00
7048;DHT22;3565;53.254;10.352;2023-07-20T01:43:57;13.10;1.00
7048;DHT22;3565;53.254;10.352;2023-07-20T01:46:27;13.10;1.00
7048;DHT22;3565;53.254;10.352;2023-07-20T01:51:33;13.10;1.00
7048;DHT22;3565;53.254;10.352;2023-07-20T01:54:03;13.10;1.00
7048;DHT22;3565;53.254;10.352;2023-07-20T01:56:32;13.10;1.00
7048;DHT22;3565;53.254;10.352;2023-07-20T02:01:38;13.10;1.00
7048;DHT22;3565;53.254;10.352;2023-07-20T02:04:07;13.10;1.00
7048;DHT22;3565;53.254;10.352;2023-07-20T02:06:36;13.10;1.00
7048;DHT22;3565;53.254;10.352;2023-07-20T02:09:06;13.10;1.00
7048;DHT22;3565;53.254;10.352;2023-07-20T02:11:34;13.20;1.00
7048;DHT22;3565;53.254;10.352;2023-07-20T02:14:03;13.20;1.00
7048;DHT22;3565;53.254;10.352;2023-07-20T02:16:32;13.20;1.00
7048;DHT22;3565;53.254;10.352;2023-07-20T02:21:39;13.30;1.00
7048;DHT22;3565;53.254;10.352;2023-07-20T02:24:07;13.30;1.00
7048;DHT22;3565;53.254;10.352;2023-07-20T02:26:36;13.40;1.00
7048;DHT22;3565;53.254;10.352;2023-07-20T02:29:06;13.30;1.00
7048;DHT22;3565;53.254;10.352;2023-07-20T02:31:35;13.40;1.00
7048;DHT22;3565;53.254;10.352;2023-07-20T02:34:05;13.40;1.00
7048;DHT22;3565;53.254;10.352;2023-07-20T02:36:35;13.40;1.00
7048;DHT22;3565;53.254;10.352;2023-07-20T02:41:43;13.30;1.00
7048;DHT22;3565;53.254;10.352;2023-07-20T02:44:12;13.30;1.00
7048;DHT22;3565;53.254;10.352;2023-07-20T02:46:42;13.30;1.00
7048;DHT22;3565;53.254;10.352;2023-07-20T02:49:11;13.30;1.00
7048;DHT22;3565;53.254;10.352;2023-07-20T02:51:41;13.30;1.00
7048;DHT22;3565;53.254;10.352;2023-07-20T02:54:10;13.40;1.00
7048;DHT22;3565;53.254;10.352;2023-07-20T02:56:39;13.40;1.00
7048;DHT22;3565;53.254;10.352;2023-07-20T02:59:08;13.40;1.00
7048;DHT22;3565;53.254;10.352;2023-07-20T03:01:37;13.30;1.00
7048;DHT22;3565;53.254;10.352;2023-07-20T03:04:09;13.40;1.00
7048;DHT22;3565;53.254;10.352;2023-07-20T03:06:38;13.30;1.00
7048;DHT22;3565;53.254;10.352;2023-07-20T03:09:07;13.40;1.00
7048;DHT22;3565;53.254;10.352;2023-07-20T03:11:37;13.30;1.00
7048;DHT22;3565;53.254;10.352;2023-07-20T03:14:06;13.30;1.00
7048;DHT22;3565;53.254;10.352;2023-07-20T03:16:35;13.30;1.00
7048;DHT22;3565;53.254;10.352;2023-07-20T03:19:04;13.30;1.00
7048;DHT22;3565;53.254;10.352;2023-07-20T03:21:33;13.30;1.00
7048;DHT22;3565;53.254;10.352;2023-07-20T03:24:02;13.20;1.00
7048;DHT22;3565;53.254;10.352;2023-07-20T03:26:31;13.30;1.00
7048;DHT22;3565;53.254;10.352;2023-07-20T03:31:37;13.30;1.00
7048;DHT22;3565;53.254;10.352;2023-07-20T03:34:07;13.30;1.00
7048;DHT22;3565;53.254;10.352;2023-07-20T03:36:36;13.30;1.00
7048;DHT22;3565;53.254;10.352;2023-07-20T03:41:44;13.30;1.00
7048;DHT22;3565;53.254;10.352;2023-07-20T03:44:13;13.30;1.00
7048;DHT22;3565;53.254;10.352;2023-07-20T03:46:42;13.30;1.00
7048;DHT22;3565;53.254;10.352;2023-07-20T03:49:11;13.30;1.00
7048;DHT22;3565;53.254;10.352;2023-07-20T03:51:40;13.40;1.00
7048;DHT22;3565;53.254;10.352;2023-07-20T03:54:09;13.50;1.00
7048;DHT22;3565;53.254;10.352;2023-07-20T03:56:39;13.40;1.00
7048;DHT22;3565;53.254;10.352;2023-07-20T03:59:08;13.40;1.00
7048;DHT22;3565;53.254;10.352;2023-07-20T04:01:38;13.40;1.00
7048;DHT22;3565;53.254;10.352;2023-07-20T04:04:08;13.40;1.00
7048;DHT22;3565;53.254;10.352;2023-07-20T04:06:38;13.50;1.00
7048;DHT22;3565;53.254;10.352;2023-07-20T04:09:06;13.40;1.00
7048;DHT22;3565;53.254;10.352;2023-07-20T04:11:36;13.40;1.00
7048;DHT22;3565;53.254;10.352;2023-07-20T04:14:05;13.40;1.00
7048;DHT22;3565;53.254;10.352;2023-07-20T04:16:34;13.50;1.00
7048;DHT22;3565;53.254;10.352;2023-07-20T04:19:03;13.50;1.00
7048;DHT22;3565;53.254;10.352;2023-07-20T04:21:32;13.50;1.00
7048;DHT22;3565;53.254;10.352;2023-07-20T04:26:41;13.50;1.00
7048;DHT22;3565;53.254;10.352;2023-07-20T04:29:10;13.60;1.00
7048;DHT22;3565;53.254;10.352;2023-07-20T04:31:39;13.70;1.00
7048;DHT22;3565;53.254;10.352;2023-07-20T04:34:08;13.70;1.00
7048;DHT22;3565;53.254;10.352;2023-07-20T04:36:38;13.80;1.00
7048;DHT22;3565;53.254;10.352;2023-07-20T04:39:07;13.90;1.00
7048;DHT22;3565;53.254;10.352;2023-07-20T04:41:36;13.90;1.00
7048;DHT22;3565;53.254;10.352;2023-07-20T04:44:05;14.00;1.00
7048;DHT22;3565;53.254;10.352;2023-07-20T04:46:35;14.10;1.00
7048;DHT22;3565;53.254;10.352;2023-07-20T04:51:41;14.20;1.00
7048;DHT22;3565;53.254;10.352;2023-07-20T04:56:48;14.30;1.00
7048;DHT22;3565;53.254;10.352;2023-07-20T05:01:54;14.30;1.00
7048;DHT22;3565;53.254;10.352;2023-07-20T05:04:23;14.40;1.00
7048;DHT22;3565;53.254;10.352;2023-07-20T05:09:31;14.30;1.00
7048;DHT22;3565;53.254;10.352;2023-07-20T05:14:38;14.50;1.00
7048;DHT22;3565;53.254;10.352;2023-07-20T05:17:07;14.50;1.00
7048;DHT22;3565;53.254;10.352;2023-07-20T05:22:15;14.70;1.00
7048;DHT22;3565;53.254;10.352;2023-07-20T05:24:44;14.80;1.00
7048;DHT22;3565;53.254;10.352;2023-07-20T05:29:50;14.80;1.00
7048;DHT22;3565;53.254;10.352;2023-07-20T05:35:01;14.90;1.00
7048;DHT22;3565;53.254;10.352;2023-07-20T05:37:30;15.00;1.00
7048;DHT22;3565;53.254;10.352;2023-07-20T05:42:36;15.10;1.00
7048;DHT22;3565;53.254;10.352;2023-07-20T05:45:07;15.20;1.00
7048;DHT22;3565;53.254;10.352;2023-07-20T05:47:36;15.20;1.00
7048;DHT22;3565;53.254;10.352;2023-07-20T05:50:07;15.30;1.00
7048;DHT22;3565;53.254;10.352;2023-07-20T05:52:36;15.30;1.00
7048;DHT22;3565;53.254;10.352;2023-07-20T05:55:08;15.60;1.00
7048;DHT22;3565;53.254;10.352;2023-07-20T06:00:18;16.10;1.00
7048;DHT22;3565;53.254;10.352;2023-07-20T06:05:29;16.20;1.00
7048;DHT22;3565;53.254;10.352;2023-07-20T06:10:35;16.30;1.00
7048;DHT22;3565;53.254;10.352;2023-07-20T06:13:05;16.30;1.00
7048;DHT22;3565;53.254;10.352;2023-07-20T06:18:15;16.40;1.00
7048;DHT22;3565;53.254;10.352;2023-07-20T06:23:22;16.60;1.00
7048;DHT22;3565;53.254;10.352;2023-07-20T06:28:29;17.00;1.00
7048;DHT22;3565;53.254;10.352;2023-07-20T06:33:38;17.40;1.00
7048;DHT22;3565;53.254;10.352;2023-07-20T06:36:07;17.90;1.00
7048;DHT22;3565;53.254;10.352;2023-07-20T06:38:36;18.70;1.00
7048;DHT22;3565;53.254;10.352;2023-07-20T06:41:05;18.30;1.00
7048;DHT22;3565;53.254;10.352;2023-07-20T06:46:13;19.10;1.00
7048;DHT22;3565;53.254;10.352;2023-07-20T06:51:19;18.40;1.00
7048;DHT22;3565;53.254;10.352;2023-07-20T06:56:26;18.30;1.00
7048;DHT22;3565;53.254;10.352;2023-07-20T07:01:33;18.40;1.00
7048;DHT22;3565;53.254;10.352;2023-07-20T07:06:40;19.70;1.00
7048;DHT22;3565;53.254;10.352;2023-07-20T07:11:47;19.50;1.00
7048;DHT22;3565;53.254;10.352;2023-07-20T07:19:33;21.00;1.00
7048;DHT22;3565;53.254;10.352;2023-07-20T07:22:04;20.70;99.90
7048;DHT22;3565;53.254;10.352;2023-07-20T07:27:15;20.50;99.90
7048;DHT22;3565;53.254;10.352;2023-07-20T07:32:22;21.80;99.90
7048;DHT22;3565;53.254;10.352;2023-07-20T07:37:29;20.60;99.90
7048;DHT22;3565;53.254;10.352;2023-07-20T07:42:35;21.50;99.90
7048;DHT22;3565;53.254;10.352;2023-07-20T07:45:06;21.60;1.00
7048;DHT22;3565;53.254;10.352;2023-07-20T07:47:36;21.90;99.90
7048;DHT22;3565;53.254;10.352;2023-07-20T07:50:07;21.80;99.90
7048;DHT22;3565;53.254;10.352;2023-07-20T07:52:36;20.80;99.90
7048;DHT22;3565;53.254;10.352;2023-07-20T07:55:07;21.50;99.90
7048;DHT22;3565;53.254;10.352;2023-07-20T07:57:36;22.30;99.90
7048;DHT22;3565;53.254;10.352;2023-07-20T08:00:08;21.80;99.90
7048;DHT22;3565;53.254;10.352;2023-07-20T08:05:18;21.20;99.90
7048;DHT22;3565;53.254;10.352;2023-07-20T08:10:25;22.30;99.90
7048;DHT22;3565;53.254;10.352;2023-07-20T08:15:32;22.80;99.90
7048;DHT22;3565;53.254;10.352;2023-07-20T08:20:39;22.20;99.90
7048;DHT22;3565;53.254;10.352;2023-07-20T08:25:49;21.70;99.90
7048;DHT22;3565;53.254;10.352;2023-07-20T08:30:55;21.90;99.90
7048;DHT22;3565;53.254;10.352;2023-07-20T08:33:24;23.00;99.90
7048;DHT22;3565;53.254;10.352;2023-07-20T08:38:36;23.80;99.90
7048;DHT22;3565;53.254;10.352;2023-07-20T08:41:05;23.40;99.90
7048;DHT22;3565;53.254;10.352;2023-07-20T08:46:16;23.70;99.90
7048;DHT22;3565;53.254;10.352;2023-07-20T08:51:23;21.30;99.90
7048;DHT22;3565;53.254;10.352;2023-07-20T08:56:31;20.00;99.90
7048;DHT22;3565;53.254;10.352;2023-07-20T08:59:02;20.10;99.90
7048;DHT22;3565;53.254;10.352;2023-07-20T09:01:31;20.80;99.90
7048;DHT22;3565;53.254;10.352;2023-07-20T09:04:01;21.60;99.90
7048;DHT22;3565;53.254;10.352;2023-07-20T09:06:30;22.20;99.90
7048;DHT22;3565;53.254;10.352;2023-07-20T09:08:59;22.70;99.90
7048;DHT22;3565;53.254;10.352;2023-07-20T09:11:28;23.40;99.90
7048;DHT22;3565;53.254;10.352;2023-07-20T09:16:49;24.10;99.90
7048;DHT22;3565;53.254;10.352;2023-07-20T09:21:56;24.70;99.90
7048;DHT22;3565;53.254;10.352;2023-07-20T09:24:28;25.00;99.90
7048;DHT22;3565;53.254;10.352;2023-07-20T09:29:34;23.70;99.90
7048;DHT22;3565;53.254;10.352;2023-07-20T09:32:05;24.20;99.90
7048;DHT22;3565;53.254;10.352;2023-07-20T09:37:11;24.20;99.90
7048;DHT22;3565;53.254;10.352;2023-07-20T09:42:22;23.60;99.90
7048;DHT22;3565;53.254;10.352;2023-07-20T09:47:33;24.70;99.90
7048;DHT22;3565;53.254;10.352;2023-07-20T09:50:03;23.90;99.90
7048;DHT22;3565;53.254;10.352;2023-07-20T09:52:32;23.00;99.90
7048;DHT22;3565;53.254;10.352;2023-07-20T09:55:05;22.50;99.90
7048;DHT22;3565;53.254;10.352;2023-07-20T09:57:35;21.70;99.90
7048;DHT22;3565;53.254;10.352;2023-07-20T10:00:07;19.90;99.90
7048;DHT22;3565;53.254;10.352;2023-07-20T10:02:42;19.40;99.90
7048;DHT22;3565;53.254;10.352;2023-07-20T10:05:13;18.40;99.90
7048;DHT22;3565;53.254;10.352;2023-07-20T10:07:46;18.10;99.90
7048;DHT22;3565;53.254;10.352;2023-07-20T10:10:18;18.20;99.90
7048;DHT22;3565;53.254;10.352;2023-07-20T10:12:49;18.40;99.90
7048;DHT22;3565;53.254;10.352;2023-07-20T10:15:23;18.70;99.90
7048;DHT22;3565;53.254;10.352;2023-07-20T10:18:02;19.90;99.90
7048;DHT22;3565;53.254;10.352;2023-07-20T10:23:08;21.00;99.90
7048;DHT22;3565;53.254;10.352;2023-07-20T10:28:17;22.20;99.90
7048;DHT22;3565;53.254;10.352;2023-07-20T10:30:46;22.60;99.90
7048;DHT22;3565;53.254;10.352;2023-07-20T10:35:55;22.80;99.90
7048;DHT22;3565;53.254;10.352;2023-07-20T10:38:40;22.90;99.90
7048;DHT22;3565;53.254;10.352;2023-07-20T10:44:02;22.90;99.90
7048;DHT22;3565;53.254;10.352;2023-07-20T10:46:45;23.20;99.90
7048;DHT22;3565;53.254;10.352;2023-07-20T10:51:58;23.50;99.90
7048;DHT22;3565;53.254;10.352;2023-07-20T10:57:32;23.10;99.90
7048;DHT22;3565;53.254;10.352;2023-07-20T11:00:18;23.20;99.90
7048;DHT22;3565;53.254;10.352;2023-07-20T11:02:47;21.70;99.90
7048;DHT22;3565;53.254;10.352;2023-07-20T11:08:13;18.90;99.90
7048;DHT22;3565;53.254;10.352;2023-07-20T11:10:44;18.80;99.90
7048;DHT22;3565;53.254;10.352;2023-07-20T11:13:21;19.00;99.90
7048;DHT22;3565;53.254;10.352;2023-07-20T11:16:04;18.90;99.90
7048;DHT22;3565;53.254;10.352;2023-07-20T11:21:16;19.60;99.90
7048;DHT22;3565;53.254;10.352;2023-07-20T11:23:45;20.80;99.90
7048;DHT22;3565;53.254;10.352;2023-07-20T11:26:16;21.00;99.90
7048;DHT22;3565;53.254;10.352;2023-07-20T11:28:50;21.90;99.90
7048;DHT22;3565;53.254;10.352;2023-07-20T11:31:20;22.40;99.90
7048;DHT22;3565;53.254;10.352;2023-07-20T11:33:49;22.00;99.90
7048;DHT22;3565;53.254;10.352;2023-07-20T11:38:58;21.80;99.90
7048;DHT22;3565;53.254;10.352;2023-07-20T11:41:27;21.70;99.90
7048;DHT22;3565;53.254;10.352;2023-07-20T11:43:56;21.80;99.90
7048;DHT22;3565;53.254;10.352;2023-07-20T11:46:25;22.00;99.90
7048;DHT22;3565;53.254;10.352;2023-07-20T11:48:59;22.10;99.90
7048;DHT22;3565;53.254;10.352;2023-07-20T11:51:28;22.60;99.90
7048;DHT22;3565;53.254;10.352;2023-07-20T11:53:58;21.80;99.90
7048;DHT22;3565;53.254;10.352;2023-07-20T11:56:27;21.90;99.90
7048;DHT22;3565;53.254;10.352;2023-07-20T11:58:58;22.20;99.90
7048;DHT22;3565;53.254;10.352;2023-07-20T12:01:29;22.80;99.90
7048;DHT22;3565;53.254;10.352;2023-07-20T12:04:01;21.60;99.90
7048;DHT22;3565;53.254;10.352;2023-07-20T12:06:30;21.60;99.90
7048;DHT22;3565;53.254;10.352;2023-07-20T12:09:01;22.30;99.90
7048;DHT22;3565;53.254;10.352;2023-07-20T12:11:34;22.60;99.90
7048;DHT22;3565;53.254;10.352;2023-07-20T12:16:41;22.00;99.90
7048;DHT22;3565;53.254;10.352;2023-07-20T12:19:12;21.30;99.90
7048;DHT22;3565;53.254;10.352;2023-07-20T12:21:42;20.80;99.90
7048;DHT22;3565;53.254;10.352;2023-07-20T12:26:49;21.10;99.90
7048;DHT22;3565;53.254;10.352;2023-07-20T12:29:19;21.00;99.90
7048;DHT22;3565;53.254;10.352;2023-07-20T12:34:27;21.30;99.90
7048;DHT22;3565;53.254;10.352;2023-07-20T12:39:34;21.40;99.90
7048;DHT22;3565;53.254;10.352;2023-07-20T12:42:05;21.40;99.90
7048;DHT22;3565;53.254;10.352;2023-07-20T12:44:34;20.80;99.90
7048;DHT22;3565;53.254;10.352;2023-07-20T12:47:04;20.50;99.90
7048;DHT22;3565;53.254;10.352;2023-07-20T12:52:11;20.80;99.90
7048;DHT22;3565;53.254;10.352;2023-07-20T12:54:40;21.00;99.90
7048;DHT22;3565;53.254;10.352;2023-07-20T12:57:09;21.20;99.90
7048;DHT22;3565;53.254;10.352;2023-07-20T13:02:15;23.10;99.90
7048;DHT22;3565;53.254;10.352;2023-07-20T13:04:44;23.00;99.90
7048;DHT22;3565;53.254;10.352;2023-07-20T13:07:13;22.60;99.90
7048;DHT22;3565;53.254;10.352;2023-07-20T13:12:20;22.20;99.90
7048;DHT22;3565;53.254;10.352;2023-07-20T13:14:49;22.60;99.90
7048;DHT22;3565;53.254;10.352;2023-07-20T13:19:56;22.90;99.90
7048;DHT22;3565;53.254;10.352;2023-07-20T13:22:25;22.80;99.90
7048;DHT22;3565;53.254;10.352;2023-07-20T13:24:54;22.60;99.90
7048;DHT22;3565;53.254;10.352;2023-07-20T13:27:24;21.80;99.90
7048;DHT22;3565;53.254;10.352;2023-07-20T13:29:53;21.50;99.90
7048;DHT22;3565;53.254;10.352;2023-07-20T13:32:23;21.50;99.90
7048;DHT22;3565;53.254;10.352;2023-07-20T13:34:52;21.10;99.90
7048;DHT22;3565;53.254;10.352;2023-07-20T13:37:21;20.50;99.90
7048;DHT22;3565;53.254;10.352;2023-07-20T13:39:50;18.90;99.90
7048;DHT22;3565;53.254;10.352;2023-07-20T13:44:57;18.10;99.90
7048;DHT22;3565;53.254;10.352;2023-07-20T13:47:26;18.20;99.90
7048;DHT22;3565;53.254;10.352;2023-07-20T13:49:55;18.50;99.90
7048;DHT22;3565;53.254;10.352;2023-07-20T13:52:24;18.70;99.90
7048;DHT22;3565;53.254;10.352;2023-07-20T13:54:54;19.10;99.90
7048;DHT22;3565;53.254;10.352;2023-07-20T13:57:23;19.40;99.90
7048;DHT22;3565;53.254;10.352;2023-07-20T13:59:52;19.50;99.90
7048;DHT22;3565;53.254;10.352;2023-07-20T14:02:21;20.10;99.90
7048;DHT22;3565;53.254;10.352;2023-07-20T14:04:50;20.20;99.90
7048;DHT22;3565;53.254;10.352;2023-07-20T14:09:56;20.00;99.90
7048;DHT22;3565;53.254;10.352;2023-07-20T14:12:25;20.10;99.90
7048;DHT22;3565;53.254;10.352;2023-07-20T14:14:55;20.50;99.90
7048;DHT22;3565;53.254;10.352;2023-07-20T14:17:24;20.30;99.90
7048;DHT22;3565;53.254;10.352;2023-07-20T14:22:30;19.90;99.90
7048;DHT22;3565;53.254;10.352;2023-07-20T14:27:37;19.10;99.90
7048;DHT22;3565;53.254;10.352;2023-07-20T14:30:08;18.70;99.90
7048;DHT22;3565;53.254;10.352;2023-07-20T14:32:40;19.00;99.90
7048;DHT22;3565;53.254;10.352;2023-07-20T14:35:09;19.40;99.90
7048;DHT22;3565;53.254;10.352;2023-07-20T14:37:38;19.30;99.90
7048;DHT22;3565;53.254;10.352;2023-07-20T14:40:10;18.90;99.90
7048;DHT22;3565;53.254;10.352;2023-07-20T14:42:39;18.90;99.90
7048;DHT22;3565;53.254;10.352;2023-07-20T14:45:09;18.70;99.90
7048;DHT22;3565;53.254;10.352;2023-07-20T14:47:38;19.10;99.90
7048;DHT22;3565;53.254;10.352;2023-07-20T14:50:08;19.00;99.90
7048;DHT22;3565;53.254;10.352;2023-07-20T14:52:38;19.70;99.90
7048;DHT22;3565;53.254;10.352;2023-07-20T14:55:08;19.60;99.90
7048;DHT22;3565;53.254;10.352;2023-07-20T14:57:37;19.40;99.90
7048;DHT22;3565;53.254;10.352;2023-07-20T15:00:09;19.60;99.90
7048;DHT22;3565;53.254;10.352;2023-07-20T15:02:39;19.60;99.90
7048;DHT22;3565;53.254;10.352;2023-07-20T15:05:10;19.70;99.90
7048;DHT22;3565;53.254;10.352;2023-07-20T15:07:39;19.60;99.90
7048;DHT22;3565;53.254;10.352;2023-07-20T15:10:09;19.10;99.90
7048;DHT22;3565;53.254;10.352;2023-07-20T15:12:38;19.60;99.90
7048;DHT22;3565;53.254;10.352;2023-07-20T15:15:09;19.40;99.90
7048;DHT22;3565;53.254;10.352;2023-07-20T15:17:39;19.90;99.90
7048;DHT22;3565;53.254;10.352;2023-07-20T15:20:11;20.30;99.90
7048;DHT22;3565;53.254;10.352;2023-07-20T15:22:40;20.70;99.90
7048;DHT22;3565;53.254;10.352;2023-07-20T15:25:11;20.10;99.90
7048;DHT22;3565;53.254;10.352;2023-07-20T15:27:40;20.80;99.90
7048;DHT22;3565;53.254;10.352;2023-07-20T15:30:12;20.60;99.90
7048;DHT22;3565;53.254;10.352;2023-07-20T15:35:20;20.80;99.90
7048;DHT22;3565;53.254;10.352;2023-07-20T15:37:49;21.20;99.90
7048;DHT22;3565;53.254;10.352;2023-07-20T15:40:18;20.80;99.90
7048;DHT22;3565;53.254;10.352;2023-07-20T15:45:24;21.10;99.90
7048;DHT22;3565;53.254;10.352;2023-07-20T15:53:12;21.70;99.90
7048;DHT22;3565;53.254;10.352;2023-07-20T15:58:18;21.50;99.90
7048;DHT22;3565;53.254;10.352;2023-07-20T16:00:52;22.20;99.90
7048;DHT22;3565;53.254;10.352;2023-07-20T16:03:22;22.70;99.90
7048;DHT22;3565;53.254;10.352;2023-07-20T16:08:30;24.40;99.90
7048;DHT22;3565;53.254;10.352;2023-07-20T16:13:38;24.10;99.90
7048;DHT22;3565;53.254;10.352;2023-07-20T16:16:07;23.70;99.90
7048;DHT22;3565;53.254;10.352;2023-07-20T16:21:15;22.40;99.90
7048;DHT22;3565;53.254;10.352;2023-07-20T16:23:45;21.80;99.90
7048;DHT22;3565;53.254;10.352;2023-07-20T16:26:14;21.90;99.90
7048;DHT22;3565;53.254;10.352;2023-07-20T16:28:43;22.00;99.90
7048;DHT22;3565;53.254;10.352;2023-07-20T16:31:14;22.20;99.90
7048;DHT22;3565;53.254;10.352;2023-07-20T16:33:44;22.90;99.90
7048;DHT22;3565;53.254;10.352;2023-07-20T16:36:15;23.00;99.90
7048;DHT22;3565;53.254;10.352;2023-07-20T16:38:44;22.60;99.90
7048;DHT22;3565;53.254;10.352;2023-07-20T16:41:13;22.60;99.90
7048;DHT22;3565;53.254;10.352;2023-07-20T16:46:20;23.20;99.90
7048;DHT22;3565;53.254;10.352;2023-07-20T16:48:49;22.20;99.90
7048;DHT22;3565;53.254;10.352;2023-07-20T16:51:18;22.10;99.90
7048;DHT22;3565;53.254;10.352;2023-07-20T16:53:48;21.40;99.90
7048;DHT22;3565;53.254;10.352;2023-07-20T16:56:17;20.90;99.90
7048;DHT22;3565;53.254;10.352;2023-07-20T17:27:51;21.50;99.90
7048;DHT22;3565;53.254;10.352;2023-07-20T17:30:21;21.80;99.90
7048;DHT22;3565;53.254;10.352;2023-07-20T17:32:50;22.30;99.90
7048;DHT22;3565;53.254;10.352;2023-07-20T17:37:56;21.80;99.90
7048;DHT22;3565;53.254;10.352;2023-07-20T17:40:26;22.10;99.90
7048;DHT22;3565;53.254;10.352;2023-07-20T17:42:56;22.40;99.90
7048;DHT22;3565;53.254;10.352;2023-07-20T17:45:25;22.50;99.90
7048;DHT22;3565;53.254;10.352;2023-07-20T17:47:55;22.80;99.90
7048;DHT22;3565;53.254;10.352;2023-07-20T17:50:24;22.50;99.90
7048;DHT22;3565;53.254;10.352;2023-07-20T17:52:54;21.60;99.90
7048;DHT22;3565;53.254;10.352;2023-07-20T17:55:24;21.20;99.90
7048;DHT22;3565;53.254;10.352;2023-07-20T17:57:53;20.90;99.90
7048;DHT22;3565;53.254;10.352;2023-07-20T18:00:22;20.80;99.90
7048;DHT22;3565;53.254;10.352;2023-07-20T18:02:51;21.10;99.90
7048;DHT22;3565;53.254;10.352;2023-07-20T18:05:20;20.70;99.90
7048;DHT22;3565;53.254;10.352;2023-07-20T18:07:49;21.10;99.90
7048;DHT22;3565;53.254;10.352;2023-07-20T18:10:19;21.00;99.90
7048;DHT22;3565;53.254;10.352;2023-07-20T18:12:48;20.90;99.90
7048;DHT22;3565;53.254;10.352;2023-07-20T18:17:54;20.50;99.90
7048;DHT22;3565;53.254;10.352;2023-07-20T18:20:23;20.50;99.90
7048;DHT22;3565;53.254;10.352;2023-07-20T18:22:52;20.40;99.90
7048;DHT22;3565;53.254;10.352;2023-07-20T18:25:22;20.10;99.90
7048;DHT22;3565;53.254;10.352;2023-07-20T18:27:51;19.80;99.90
7048;DHT22;3565;53.254;10.352;2023-07-20T18:32:57;19.00;99.90
7048;DHT22;3565;53.254;10.352;2023-07-20T18:35:26;18.90;99.90
7048;DHT22;3565;53.254;10.352;2023-07-20T18:37:55;18.80;99.90
7048;DHT22;3565;53.254;10.352;2023-07-20T18:40:25;18.60;99.90
7048;DHT22;3565;53.254;10.352;2023-07-20T18:42:54;18.60;99.90
7048;DHT22;3565;53.254;10.352;2023-07-20T18:45:23;18.60;99.90
7048;DHT22;3565;53.254;10.352;2023-07-20T18:47:52;18.40;99.90
7048;DHT22;3565;53.254;10.352;2023-07-20T18:50:22;18.20;99.90
7048;DHT22;3565;53.254;10.352;2023-07-20T18:52:51;18.10;99.90
7048;DHT22;3565;53.254;10.352;2023-07-20T18:57:57;18.00;99.90
7048;DHT22;3565;53.254;10.352;2023-07-20T19:03:05;17.80;99.90
7048;DHT22;3565;53.254;10.352;2023-07-20T19:08:28;17.70;99.90
7048;DHT22;3565;53.254;10.352;2023-07-20T19:11:00;17.60;99.90
7048;DHT22;3565;53.254;10.352;2023-07-20T19:13:31;17.50;99.90
7048;DHT22;3565;53.254;10.352;2023-07-20T19:18:40;17.30;99.90
7048;DHT22;3565;53.254;10.352;2023-07-20T19:23:47;17.10;99.90
7048;DHT22;3565;53.254;10.352;2023-07-20T19:29:06;17.10;99.90
7048;DHT22;3565;53.254;10.352;2023-07-20T19:31:35;17.10;99.90
7048;DHT22;3565;53.254;10.352;2023-07-20T19:36:49;17.00;99.90
7048;DHT22;3565;53.254;10.352;2023-07-20T19:39:18;16.90;99.90
7048;DHT22;3565;53.254;10.352;2023-07-20T19:41:47;16.90;99.90
7048;DHT22;3565;53.254;10.352;2023-07-20T19:44:17;16.80;99.90
7048;DHT22;3565;53.254;10.352;2023-07-20T19:46:46;16.70;99.90
7048;DHT22;3565;53.254;10.352;2023-07-20T19:51:53;16.70;99.90
7048;DHT22;3565;53.254;10.352;2023-07-20T19:54:22;16.70;99.90
7048;DHT22;3565;53.254;10.352;2023-07-20T19:56:51;16.60;99.90
7048;DHT22;3565;53.254;10.352;2023-07-20T19:59:21;16.60;99.90
7048;DHT22;3565;53.254;10.352;2023-07-20T20:01:51;16.70;99.90
7048;DHT22;3565;53.254;10.352;2023-07-20T20:04:20;16.50;99.90
7048;DHT22;3565;53.254;10.352;2023-07-20T20:06:49;16.40;99.90
7048;DHT22;3565;53.254;10.352;2023-07-20T20:12:03;16.30;99.90
7048;DHT22;3565;53.254;10.352;2023-07-20T20:17:55;16.20;99.90
7048;DHT22;3565;53.254;10.352;2023-07-20T20:23:17;16.10;99.90
7048;DHT22;3565;53.254;10.352;2023-07-20T20:34:31;16.20;99.90
7048;DHT22;3565;53.254;10.352;2023-07-20T20:37:02;16.20;99.90
7048;DHT22;3565;53.254;10.352;2023-07-20T20:39:31;16.10;99.90
7048;DHT22;3565;53.254;10.352;2023-07-20T20:50:11;16.10;99.90
7048;DHT22;3565;53.254;10.352;2023-07-20T20:55:31;16.10;99.90
7048;DHT22;3565;53.254;10.352;2023-07-20T20:58:01;16.10;99.90
7048;DHT22;3565;53.254;10.352;2023-07-20T21:00:30;16.00;99.90
7048;DHT22;3565;53.254;10.352;2023-07-20T21:05:50;16.10;99.90
7048;DHT22;3565;53.254;10.352;2023-07-20T21:08:21;16.00;99.90
7048;DHT22;3565;53.254;10.352;2023-07-20T21:10:51;15.80;99.90
7048;DHT22;3565;53.254;10.352;2023-07-20T21:16:08;15.80;99.90
7048;DHT22;3565;53.254;10.352;2023-07-20T21:18:37;15.80;99.90
7048;DHT22;3565;53.254;10.352;2023-07-20T21:36:56;15.30;99.90
7048;DHT22;3565;53.254;10.352;2023-07-20T21:42:08;15.20;99.90
7048;DHT22;3565;53.254;10.352;2023-07-20T21:50:05;15.10;99.90
7048;DHT22;3565;53.254;10.352;2023-07-20T21:52:35;15.20;99.90
7048;DHT22;3565;53.254;10.352;2023-07-20T21:57:52;15.20;99.90
7048;DHT22;3565;53.254;10.352;2023-07-20T22:00:22;15.10;99.90
7048;DHT22;3565;53.254;10.352;2023-07-20T22:02:51;15.20;99.90
7048;DHT22;3565;53.254;10.352;2023-07-20T22:05:20;15.20;99.90
7048;DHT22;3565;53.254;10.352;2023-07-20T22:07:50;15.10;99.90
7048;DHT22;3565;53.254;10.352;2023-07-20T22:10:19;15.10;99.90
7048;DHT22;3565;53.254;10.352;2023-07-20T22:12:51;15.10;99.90
7048;DHT22;3565;53.254;10.352;2023-07-20T22:15:20;15.10;99.90